EIKN/NOC METAR and TAF weather

Enter ICAO airport designator
Station Type Date Time Source
EIKN METAR 2020/07/04 09:30 UTC NOAA

EIKN 040930Z 23004KT 170V260 6000 OVC003 13/13 Q1004 TEMPO 0500 BKN001


Station Type Date Time Source
EIKN Decoded METAR 2020/07/04 09:30 UTC NOAA

Connaught, Ireland (EIKN) 53-54-37N 008-49-05W
Jul 04, 2020 - 05:30 AM EDT / 2020.07.04 0930 UTC
Wind: from the SW (230 degrees) at 5 MPH (4 KT) (direction variable):0
Visibility: 3 mile(s):0
Sky conditions: overcast
Temperature: 55 F (13 C)
Dew Point: 55 F (13 C)
Relative Humidity: 100%
Pressure (altimeter): 29.65 in. Hg (1004 hPa)
ob: EIKN 040930Z 23004KT 170V260 6000 OVC003 13/13 Q1004 TEMPO 0500 BKN001
cycle: 9

Station Type Date Time Source
EIKN TAF 2020/07/04 06:38 UTC NOAA

TAF COR EIKN 040529Z 0406/0506 VRB03KT 3000 -RADZ BR BKN005
TEMPO 0406/0412 0200 FG BKN001
BECMG 0408/0410 23006KT
BECMG 0412/0414 9999 NSW
BECMG 0413/0415 20007KT
BECMG 0415/0417 4000 -RA
BECMG 0418/0420 21018G28KT
TEMPO 0418/0423 1200 RA BKN003 PROB40
TEMPO 0418/0423 0400 FG BKN001
BECMG 0422/0424 25018G32KT 9999 NSW SCT012 BKN020

Example: see airport list